Time;durP1;ratioP1;P1;durP2;ratioP2;P2;SDS_P1;SDS_P2;PMS_P1;PMS_P2;Temp;Humidity;BMP_temperature;BMP_pressure;BME280_temperature;BME280_humidity;BME280_pressure;Samples;Min_cycle;Max_cycle;Signal;HPM_P1;HPM_P2
2022/08/18 00:02:22;;;;;;;;;;;20.40;99.90;;;;;;8413247;28;20280;-70
2022/08/18 00:06:29;;;;;;;;;;;20.30;99.90;;;;;;8417593;28;19928;-70
2022/08/18 00:10:31;;;;;;;;;;;20.30;99.90;;;;;;8413667;28;19988;-69
2022/08/18 00:14:33;;;;;;;;;;;20.30;99.90;;;;;;8400387;28;19924;-70
2022/08/18 00:18:34;;;;;;;;;;;20.30;99.90;;;;;;8427750;28;20430;-70
2022/08/18 00:22:38;;;;;;;;;;;20.30;99.90;;;;;;8424451;28;19932;-70
2022/08/18 00:26:40;;;;;;;;;;;20.30;99.90;;;;;;8415664;28;20329;-70
2022/08/18 00:30:41;;;;;;;;;;;20.20;99.90;;;;;;8432237;27;20301;-70
2022/08/18 00:34:43;;;;;;;;;;;20.20;99.90;;;;;;8398966;28;20418;-70
2022/08/18 00:38:45;;;;;;;;;;;20.10;99.90;;;;;;8403570;28;19947;-69
2022/08/18 00:42:48;;;;;;;;;;;20.10;99.90;;;;;;8393485;28;20380;-70
2022/08/18 00:46:50;;;;;;;;;;;20.00;99.90;;;;;;8420569;28;20406;-70
2022/08/18 00:50:57;;;;;;;;;;;20.00;99.90;;;;;;8412325;28;20387;-69
2022/08/18 00:55:00;;;;;;;;;;;19.90;99.90;;;;;;8418619;28;20425;-70
2022/08/18 00:59:03;;;;;;;;;;;19.90;99.90;;;;;;8410789;28;19924;-70
2022/08/18 01:03:08;;;;;;;;;;;19.90;99.90;;;;;;8414041;28;19931;-69
2022/08/18 01:07:12;;;;;;;;;;;19.80;99.90;;;;;;8414386;28;19931;-69
2022/08/18 01:11:13;;;;;;;;;;;19.80;99.90;;;;;;8406898;28;19951;-70
2022/08/18 01:15:16;;;;;;;;;;;19.70;99.90;;;;;;8406975;28;19924;-70
2022/08/18 01:23:50;;;;;;;;;;;19.60;99.90;;;;;;8413347;28;19928;-70
2022/08/18 01:27:55;;;;;;;;;;;19.60;99.90;;;;;;8416119;28;19931;-70
2022/08/18 01:31:57;;;;;;;;;;;19.50;99.90;;;;;;8411794;28;20276;-70
2022/08/18 01:36:02;;;;;;;;;;;19.50;99.90;;;;;;8403181;28;20403;-69
2022/08/18 01:40:05;;;;;;;;;;;19.50;99.90;;;;;;8423001;28;19931;-70
2022/08/18 01:44:27;;;;;;;;;;;19.40;99.90;;;;;;8395677;28;20019;-70
2022/08/18 01:48:32;;;;;;;;;;;19.40;99.90;;;;;;8424084;28;21406;-70
2022/08/18 01:52:34;;;;;;;;;;;19.30;99.90;;;;;;8416287;28;19935;-70
2022/08/18 01:56:36;;;;;;;;;;;19.30;99.90;;;;;;8404113;28;19923;-69
2022/08/18 02:00:40;;;;;;;;;;;19.30;99.90;;;;;;8416275;28;19935;-70
2022/08/18 02:04:42;;;;;;;;;;;19.30;99.90;;;;;;8419185;28;19943;-70
2022/08/18 02:08:44;;;;;;;;;;;19.20;99.90;;;;;;8410561;28;19931;-70
2022/08/18 02:12:54;;;;;;;;;;;19.20;99.90;;;;;;8408109;28;19935;-70
2022/08/18 02:16:56;;;;;;;;;;;19.30;99.90;;;;;;8411754;28;19924;-70
2022/08/18 02:21:10;;;;;;;;;;;19.30;99.90;;;;;;8420630;28;20412;-70
2022/08/18 02:25:12;;;;;;;;;;;19.30;99.90;;;;;;8386284;28;19925;-70
2022/08/18 02:29:14;;;;;;;;;;;19.20;99.90;;;;;;8417602;28;19925;-70
2022/08/18 02:33:16;;;;;;;;;;;19.20;99.90;;;;;;8398531;28;19925;-70
2022/08/18 02:37:17;;;;;;;;;;;19.20;99.90;;;;;;8400711;28;19924;-69
2022/08/18 02:41:20;;;;;;;;;;;19.20;99.90;;;;;;8404629;28;19928;-70
2022/08/18 02:45:22;;;;;;;;;;;19.20;99.90;;;;;;8413091;28;19929;-70
2022/08/18 02:49:24;;;;;;;;;;;19.20;99.90;;;;;;8419952;28;19928;-69
2022/08/18 02:53:27;;;;;;;;;;;19.10;99.90;;;;;;8415532;28;19928;-70
2022/08/18 02:57:29;;;;;;;;;;;19.10;99.90;;;;;;8418783;28;19950;-69
2022/08/18 03:01:33;;;;;;;;;;;19.10;99.90;;;;;;8414866;28;19925;-69
2022/08/18 03:05:35;;;;;;;;;;;19.10;99.90;;;;;;8434508;28;19928;-70
2022/08/18 03:09:36;;;;;;;;;;;19.00;99.90;;;;;;8417175;28;19931;-70
2022/08/18 03:13:38;;;;;;;;;;;19.00;99.90;;;;;;8413277;28;20291;-69
2022/08/18 03:17:40;;;;;;;;;;;19.00;99.90;;;;;;8410521;28;20390;-70
2022/08/18 03:21:43;;;;;;;;;;;18.90;99.90;;;;;;8413131;28;19940;-70
2022/08/18 03:25:46;;;;;;;;;;;18.90;99.90;;;;;;8411209;28;19928;-70
2022/08/18 03:29:49;;;;;;;;;;;18.90;99.90;;;;;;8399410;28;19928;-70
2022/08/18 03:33:51;;;;;;;;;;;18.90;99.90;;;;;;8414226;28;20406;-70
2022/08/18 03:37:54;;;;;;;;;;;18.90;99.90;;;;;;8392962;28;20291;-70
2022/08/18 03:41:56;;;;;;;;;;;18.90;99.90;;;;;;8411649;28;20391;-70
2022/08/18 03:46:08;;;;;;;;;;;18.80;99.90;;;;;;8411509;28;20064;-70
2022/08/18 03:50:10;;;;;;;;;;;18.80;99.90;;;;;;8395162;28;19935;-69
2022/08/18 03:54:16;;;;;;;;;;;18.80;99.90;;;;;;8414401;28;19928;-70
2022/08/18 03:58:17;;;;;;;;;;;18.80;99.90;;;;;;8428967;28;19924;-70
2022/08/18 04:02:19;;;;;;;;;;;18.70;99.90;;;;;;8424584;28;19932;-70
2022/08/18 04:06:31;;;;;;;;;;;18.70;99.90;;;;;;8433912;28;19931;-70
2022/08/18 04:10:34;;;;;;;;;;;18.70;99.90;;;;;;8417241;28;19931;-70
2022/08/18 04:14:36;;;;;;;;;;;18.70;99.90;;;;;;8424782;28;19932;-69
2022/08/18 04:18:38;;;;;;;;;;;18.70;99.90;;;;;;8395988;28;20009;-69
2022/08/18 04:22:39;;;;;;;;;;;18.80;99.90;;;;;;8421732;28;19941;-70
2022/08/18 04:26:43;;;;;;;;;;;18.80;99.90;;;;;;8404005;28;19935;-69
2022/08/18 04:30:45;;;;;;;;;;;18.80;99.90;;;;;;8406246;28;19924;-69
2022/08/18 04:34:47;;;;;;;;;;;18.80;99.90;;;;;;8441427;28;19924;-70
2022/08/18 04:38:49;;;;;;;;;;;18.80;99.90;;;;;;8417350;28;19923;-70
2022/08/18 04:42:50;;;;;;;;;;;18.80;99.90;;;;;;8430099;28;19924;-69
2022/08/18 04:46:53;;;;;;;;;;;18.80;99.90;;;;;;8415086;28;20003;-70
2022/08/18 04:50:54;;;;;;;;;;;18.80;99.90;;;;;;8377773;28;19924;-70
2022/08/18 04:54:56;;;;;;;;;;;18.80;99.90;;;;;;8444678;28;19932;-70
2022/08/18 04:59:03;;;;;;;;;;;18.80;99.90;;;;;;8444246;27;19932;-69
2022/08/18 05:03:05;;;;;;;;;;;18.80;99.90;;;;;;8417842;28;19924;-69
2022/08/18 05:07:08;;;;;;;;;;;18.80;99.90;;;;;;8425166;27;19939;-70
2022/08/18 05:11:09;;;;;;;;;;;18.80;99.90;;;;;;8414915;28;19943;-69
2022/08/18 05:15:11;;;;;;;;;;;18.80;99.90;;;;;;8397404;28;19928;-69
2022/08/18 05:19:14;;;;;;;;;;;18.80;99.90;;;;;;8429962;28;19965;-70
2022/08/18 05:23:16;;;;;;;;;;;18.80;99.90;;;;;;8404846;28;19931;-70
2022/08/18 05:27:17;;;;;;;;;;;18.80;99.90;;;;;;8406819;28;19930;-70
2022/08/18 05:31:25;;;;;;;;;;;18.90;99.90;;;;;;8424731;28;19924;-69
2022/08/18 05:35:32;;;;;;;;;;;18.90;99.90;;;;;;8459302;28;19923;-70
2022/08/18 05:39:39;;;;;;;;;;;18.90;99.90;;;;;;8401160;28;19941;-70
2022/08/18 05:43:43;;;;;;;;;;;19.00;99.90;;;;;;8430314;28;19973;-70
2022/08/18 05:47:56;;;;;;;;;;;19.00;99.90;;;;;;8458181;28;19923;-70
2022/08/18 05:52:00;;;;;;;;;;;19.10;99.90;;;;;;8432101;28;19931;-70
2022/08/18 06:00:25;;;;;;;;;;;19.20;99.90;;;;;;8372813;28;19928;-69
2022/08/18 06:04:37;;;;;;;;;;;19.30;99.90;;;;;;8382326;28;19966;-69
2022/08/18 06:08:41;;;;;;;;;;;19.40;99.90;;;;;;8381371;28;19936;-70
2022/08/18 06:12:45;;;;;;;;;;;19.50;99.90;;;;;;8368328;28;20264;-70
2022/08/18 06:16:55;;;;;;;;;;;19.60;99.90;;;;;;8367935;28;19924;-70
2022/08/18 06:21:15;;;;;;;;;;;19.70;99.90;;;;;;8379524;28;19943;-70
2022/08/18 06:25:24;;;;;;;;;;;19.80;99.90;;;;;;8319898;28;19925;-69
2022/08/18 06:29:25;;;;;;;;;;;19.90;99.90;;;;;;8370253;28;19931;-70
2022/08/18 06:33:36;;;;;;;;;;;19.90;99.90;;;;;;8385978;28;19928;-70
2022/08/18 06:38:37;;;;;;;;;;;20.00;99.90;;;;;;8381112;28;19924;-70
2022/08/18 06:42:05;;;;;;;;;;;20.10;99.90;;;;;;8388834;28;19936;-69
2022/08/18 06:46:11;;;;;;;;;;;20.20;99.90;;;;;;8393212;28;19925;-70
2022/08/18 06:50:12;;;;;;;;;;;20.30;99.90;;;;;;8395829;28;19931;-69
2022/08/18 06:54:20;;;;;;;;;;;20.30;99.90;;;;;;8361678;28;19924;-70
2022/08/18 06:58:29;;;;;;;;;;;20.40;99.90;;;;;;8411498;28;20394;-70
2022/08/18 07:02:44;;;;;;;;;;;20.40;99.90;;;;;;8422989;28;19934;-70
2022/08/18 07:06:46;;;;;;;;;;;20.50;99.90;;;;;;8457259;28;20390;-70
2022/08/18 07:10:49;;;;;;;;;;;20.60;99.90;;;;;;8440312;28;20332;-70
2022/08/18 07:14:53;;;;;;;;;;;20.50;99.90;;;;;;8435763;28;19946;-70
2022/08/18 07:19:11;;;;;;;;;;;20.60;99.90;;;;;;8445282;28;19927;-70
2022/08/18 07:23:21;;;;;;;;;;;20.70;99.90;;;;;;8445847;28;19930;-70
2022/08/18 07:27:47;;;;;;;;;;;20.80;99.90;;;;;;8436157;28;19924;-70
2022/08/18 07:31:51;;;;;;;;;;;20.80;99.90;;;;;;8437313;28;20340;-70
2022/08/18 07:35:57;;;;;;;;;;;21.00;99.90;;;;;;8455465;28;19930;-70
2022/08/18 07:40:02;;;;;;;;;;;21.00;99.90;;;;;;8425546;28;20369;-70
2022/08/18 07:44:22;;;;;;;;;;;21.00;99.90;;;;;;8436451;28;19929;-70
2022/08/18 07:48:27;;;;;;;;;;;21.10;99.90;;;;;;8428925;28;20393;-70
2022/08/18 07:52:55;;;;;;;;;;;21.10;99.90;;;;;;8392120;28;19928;-70
2022/08/18 07:57:10;;;;;;;;;;;21.10;99.90;;;;;;8433208;28;19924;-70
2022/08/18 08:01:24;;;;;;;;;;;21.20;99.90;;;;;;8449010;28;19924;-70
2022/08/18 08:06:03;;;;;;;;;;;21.30;99.90;;;;;;8404754;28;19923;-70
2022/08/18 08:10:17;;;;;;;;;;;21.50;99.90;;;;;;8389427;28;19924;-70
2022/08/18 08:14:23;;;;;;;;;;;21.60;99.90;;;;;;8419908;28;19928;-70
2022/08/18 08:18:30;;;;;;;;;;;21.70;99.90;;;;;;8443107;28;19924;-70
2022/08/18 08:22:34;;;;;;;;;;;21.70;99.90;;;;;;8446947;28;19931;-70
2022/08/18 08:26:46;;;;;;;;;;;21.80;99.90;;;;;;8428165;28;19958;-70
2022/08/18 08:31:01;;;;;;;;;;;21.80;99.90;;;;;;8438249;28;19939;-70
2022/08/18 08:35:32;;;;;;;;;;;22.00;99.90;;;;;;8421241;28;19932;-70
2022/08/18 08:39:56;;;;;;;;;;;22.10;99.90;;;;;;8405845;28;19935;-70
2022/08/18 08:44:20;;;;;;;;;;;22.20;99.90;;;;;;8406228;28;19932;-70
2022/08/18 08:48:23;;;;;;;;;;;22.20;99.90;;;;;;8413128;28;19927;-70
2022/08/18 08:52:46;;;;;;;;;;;22.20;99.90;;;;;;8412986;28;20560;-70
2022/08/18 08:56:49;;;;;;;;;;;22.20;99.90;;;;;;8420045;28;21181;-70
2022/08/18 09:00:51;;;;;;;;;;;22.10;99.90;;;;;;8446690;28;19928;-70
2022/08/18 09:04:56;;;;;;;;;;;22.10;99.90;;;;;;8403431;28;19924;-70
2022/08/18 09:09:15;;;;;;;;;;;22.00;99.90;;;;;;8448316;28;19967;-70
2022/08/18 09:13:20;;;;;;;;;;;21.90;99.90;;;;;;8449144;28;19923;-70
2022/08/18 09:17:33;;;;;;;;;;;21.90;99.90;;;;;;8424770;28;20272;-70
2022/08/18 09:21:35;;;;;;;;;;;22.00;99.90;;;;;;8438963;28;19977;-70
2022/08/18 09:25:36;;;;;;;;;;;22.00;99.90;;;;;;8444819;28;20343;-70
2022/08/18 09:29:47;;;;;;;;;;;22.10;99.90;;;;;;8434888;28;19931;-70
2022/08/18 09:33:49;;;;;;;;;;;22.20;99.90;;;;;;8446164;28;19931;-71
2022/08/18 09:42:35;;;;;;;;;;;22.50;99.90;;;;;;8453767;28;20006;-70
2022/08/18 09:46:52;;;;;;;;;;;22.60;99.90;;;;;;8444630;28;19934;-70
2022/08/18 09:50:54;;;;;;;;;;;22.70;99.90;;;;;;8446301;28;19924;-70
2022/08/18 09:55:00;;;;;;;;;;;22.70;99.90;;;;;;8455727;28;20401;-71
2022/08/18 09:59:03;;;;;;;;;;;22.70;99.90;;;;;;8440321;28;19928;-70
2022/08/18 10:03:22;;;;;;;;;;;22.80;99.90;;;;;;8445800;28;20018;-70
2022/08/18 10:07:30;;;;;;;;;;;22.90;99.90;;;;;;8453405;28;19924;-70
2022/08/18 10:11:48;;;;;;;;;;;22.90;99.90;;;;;;8452373;28;19924;-70
2022/08/18 10:16:04;;;;;;;;;;;22.80;99.90;;;;;;8449760;28;19940;-70
2022/08/18 10:20:32;;;;;;;;;;;22.90;99.90;;;;;;8449431;28;19927;-71
2022/08/18 10:24:34;;;;;;;;;;;23.00;99.90;;;;;;8466616;28;19924;-70
2022/08/18 10:28:48;;;;;;;;;;;23.20;99.90;;;;;;8449543;28;19960;-70
2022/08/18 10:32:50;;;;;;;;;;;23.30;99.90;;;;;;8453714;28;19923;-70
2022/08/18 10:36:57;;;;;;;;;;;23.50;99.90;;;;;;8428215;28;19928;-70
2022/08/18 10:41:03;;;;;;;;;;;23.60;99.90;;;;;;8442570;28;19928;-70
2022/08/18 10:45:19;;;;;;;;;;;23.80;99.90;;;;;;8458665;28;20040;-70
2022/08/18 10:49:24;;;;;;;;;;;23.80;99.90;;;;;;8412054;28;19980;-70
2022/08/18 10:53:32;;;;;;;;;;;23.70;99.90;;;;;;8442744;28;19924;-71
2022/08/18 10:57:44;;;;;;;;;;;23.70;99.90;;;;;;8431666;28;19967;-71
2022/08/18 11:01:52;;;;;;;;;;;23.60;99.90;;;;;;8465527;27;19928;-70
2022/08/18 11:06:05;;;;;;;;;;;23.50;99.90;;;;;;8445389;28;19924;-70
2022/08/18 11:10:33;;;;;;;;;;;23.40;99.90;;;;;;8462863;28;19930;-70
2022/08/18 11:15:04;;;;;;;;;;;23.30;99.90;;;;;;8437746;28;20018;-70
2022/08/18 11:19:23;;;;;;;;;;;23.30;99.90;;;;;;8429566;28;20027;-70
2022/08/18 11:23:25;;;;;;;;;;;23.30;99.90;;;;;;8452573;28;19924;-70
2022/08/18 11:27:28;;;;;;;;;;;23.40;99.90;;;;;;8444550;28;19932;-70
2022/08/18 11:31:30;;;;;;;;;;;23.40;99.90;;;;;;8454980;28;19931;-70
2022/08/18 11:35:58;;;;;;;;;;;23.50;99.90;;;;;;8434958;28;19951;-70
2022/08/18 11:40:04;;;;;;;;;;;23.70;99.90;;;;;;8431586;28;19981;-70
2022/08/18 11:44:13;;;;;;;;;;;24.10;99.90;;;;;;8450236;28;20046;-70
2022/08/18 11:48:27;;;;;;;;;;;24.40;99.90;;;;;;8446942;28;20282;-70
2022/08/18 11:52:50;;;;;;;;;;;24.50;99.90;;;;;;8464286;28;19920;-70
2022/08/18 11:57:28;;;;;;;;;;;24.40;99.90;;;;;;8448144;28;20013;-70
2022/08/18 12:01:39;;;;;;;;;;;24.30;99.90;;;;;;8435020;28;19920;-70
2022/08/18 12:05:44;;;;;;;;;;;24.20;99.90;;;;;;8452486;28;19927;-70
2022/08/18 12:10:13;;;;;;;;;;;24.20;99.90;;;;;;8454712;28;19959;-70
2022/08/18 12:14:21;;;;;;;;;;;24.20;99.90;;;;;;8463576;28;19927;-70
2022/08/18 12:18:42;;;;;;;;;;;24.10;99.90;;;;;;8445236;28;19920;-70
2022/08/18 12:22:45;;;;;;;;;;;24.00;99.90;;;;;;8462697;28;19942;-70
2022/08/18 12:26:47;;;;;;;;;;;24.00;99.90;;;;;;8449793;28;19919;-70
2022/08/18 12:30:49;;;;;;;;;;;24.00;99.90;;;;;;8462468;28;20363;-70
2022/08/18 12:34:58;;;;;;;;;;;24.00;99.90;;;;;;8462696;28;19931;-70
2022/08/18 12:39:07;;;;;;;;;;;24.00;99.90;;;;;;8424332;28;19919;-70
2022/08/18 12:43:09;;;;;;;;;;;24.00;99.90;;;;;;8460024;28;19920;-70
2022/08/18 12:47:13;;;;;;;;;;;24.10;99.90;;;;;;8443820;28;20362;-70
2022/08/18 12:51:14;;;;;;;;;;;24.20;99.90;;;;;;8451601;28;19936;-70
2022/08/18 12:55:17;;;;;;;;;;;24.20;99.90;;;;;;8448787;28;19919;-70
2022/08/18 12:59:23;;;;;;;;;;;24.20;99.90;;;;;;8455050;28;19930;-70
2022/08/18 13:03:24;;;;;;;;;;;24.30;99.90;;;;;;8461612;28;19920;-70
2022/08/18 13:07:46;;;;;;;;;;;24.50;99.90;;;;;;8443652;28;19923;-70
2022/08/18 13:11:48;;;;;;;;;;;24.60;99.90;;;;;;8457251;28;19923;-70
2022/08/18 13:15:50;;;;;;;;;;;24.60;99.90;;;;;;8456075;28;19965;-70
2022/08/18 13:19:59;;;;;;;;;;;24.70;99.90;;;;;;8446435;28;19998;-70
2022/08/18 13:24:02;;;;;;;;;;;24.70;99.90;;;;;;8450075;28;19928;-70
2022/08/18 13:28:04;;;;;;;;;;;24.70;99.90;;;;;;8440915;28;20389;-70
2022/08/18 13:32:08;;;;;;;;;;;24.70;99.90;;;;;;8447424;28;20389;-70
2022/08/18 13:36:09;;;;;;;;;;;24.60;99.90;;;;;;8429847;28;19927;-70
2022/08/18 13:40:12;;;;;;;;;;;24.60;99.90;;;;;;8443308;28;19920;-70
2022/08/18 13:44:16;;;;;;;;;;;24.70;99.90;;;;;;8454729;28;20010;-70
2022/08/18 13:48:19;;;;;;;;;;;24.70;99.90;;;;;;8449695;28;19920;-70
2022/08/18 13:52:21;;;;;;;;;;;24.70;99.90;;;;;;8440282;28;20283;-70
2022/08/18 13:56:34;;;;;;;;;;;24.80;99.90;;;;;;8441326;28;20294;-70
2022/08/18 14:00:36;;;;;;;;;;;24.80;99.90;;;;;;8460258;28;19927;-70
2022/08/18 14:04:39;;;;;;;;;;;24.70;99.90;;;;;;8437639;28;19963;-70
2022/08/18 14:08:40;;;;;;;;;;;24.80;99.90;;;;;;8441194;28;19931;-70
2022/08/18 14:12:43;;;;;;;;;;;24.80;99.90;;;;;;8447490;28;20333;-70
2022/08/18 14:16:45;;;;;;;;;;;24.90;99.90;;;;;;8423944;28;19920;-70
2022/08/18 14:29:27;;;;;;;;;;;25.20;99.90;;;;;;8439254;28;20232;-70
2022/08/18 14:33:46;;;;;;;;;;;25.20;99.90;;;;;;8425930;28;19934;-70
2022/08/18 14:37:51;;;;;;;;;;;25.20;99.90;;;;;;8407903;28;19926;-70
2022/08/18 14:41:55;;;;;;;;;;;25.10;99.90;;;;;;8436971;28;19963;-70
2022/08/18 14:45:57;;;;;;;;;;;25.10;99.90;;;;;;8433722;28;19985;-70
2022/08/18 14:49:59;;;;;;;;;;;25.20;99.90;;;;;;8447814;27;20315;-70
2022/08/18 14:54:01;;;;;;;;;;;25.30;99.90;;;;;;8440836;28;19931;-70
2022/08/18 14:58:03;;;;;;;;;;;25.40;99.90;;;;;;8440134;28;19935;-71
2022/08/18 15:02:09;;;;;;;;;;;25.50;99.90;;;;;;8442507;28;20309;-70
2022/08/18 15:06:13;;;;;;;;;;;25.60;99.90;;;;;;8448541;28;19993;-70
2022/08/18 15:10:17;;;;;;;;;;;25.60;99.90;;;;;;8427546;28;19924;-71
2022/08/18 15:14:21;;;;;;;;;;;25.60;99.90;;;;;;8435243;28;19924;-70
2022/08/18 15:18:23;;;;;;;;;;;25.60;99.90;;;;;;8414500;28;23015;-70
2022/08/18 15:26:46;;;;;;;;;;;25.80;99.90;;;;;;8446297;28;19925;-70
2022/08/18 15:30:49;;;;;;;;;;;25.90;99.90;;;;;;8409554;28;19932;-70
2022/08/18 15:34:51;;;;;;;;;;;26.00;99.90;;;;;;8396084;28;19967;-70
2022/08/18 15:38:53;;;;;;;;;;;26.10;99.90;;;;;;8418282;28;19935;-70
2022/08/18 15:42:56;;;;;;;;;;;26.10;99.90;;;;;;8438356;28;19928;-70
2022/08/18 15:46:58;;;;;;;;;;;26.20;99.90;;;;;;8437796;28;20006;-70
2022/08/18 15:51:00;;;;;;;;;;;26.40;99.90;;;;;;8432162;28;19931;-70
2022/08/18 15:55:12;;;;;;;3.80;2.13;;;26.70;99.90;;;;;;8413292;28;19923;-70
2022/08/18 15:59:15;;;;;;;4.90;2.00;;;27.10;99.90;;;;;;8411778;28;20075;-70
2022/08/18 16:03:19;;;;;;;;;;;27.60;99.90;;;;;;8443146;28;20048;-70
2022/08/18 16:07:21;;;;;;;;;;;28.10;99.90;;;;;;8444260;28;20074;-70
2022/08/18 16:11:26;;;;;;;;;;;28.30;99.90;;;;;;8420119;28;20058;-71
2022/08/18 16:15:33;;;;;;;;;;;28.10;99.90;;;;;;8390090;28;19931;-71
2022/08/18 16:19:37;;;;;;;;;;;27.90;99.90;;;;;;8385285;28;20113;-71
2022/08/18 16:23:42;;;;;;;;;;;27.60;99.90;;;;;;8392318;28;20054;-70
2022/08/18 16:27:46;;;;;;;;;;;27.40;99.90;;;;;;8389202;28;19924;-70
2022/08/18 16:31:49;;;;;;;;;;;27.30;99.90;;;;;;8390723;28;25141;-70
2022/08/18 16:35:51;;;;;;;;;;;27.20;99.90;;;;;;8394500;28;19928;-70
2022/08/18 16:39:53;;;;;;;;;;;27.20;99.90;;;;;;8390197;28;19935;-71
2022/08/18 16:43:55;;;;;;;;;;;27.10;99.90;;;;;;8389606;28;24081;-71
2022/08/18 16:47:56;;;;;;;;;;;27.20;99.90;;;;;;8389636;28;19920;-71
2022/08/18 16:52:00;;;;;;;;;;;27.60;99.90;;;;;;8389851;28;19944;-71
2022/08/18 16:56:02;;;;;;;;;;;28.00;99.90;;;;;;8387913;28;19931;-71
2022/08/18 17:04:27;;;;;;;;;;;28.70;99.90;;;;;;8384300;28;19927;-71
2022/08/18 17:08:32;;;;;;;;;;;28.50;99.90;;;;;;8388346;28;19977;-71
2022/08/18 17:12:34;;;;;;;;;;;28.20;99.90;;;;;;8390489;28;20079;-71
2022/08/18 17:16:36;;;;;;;;;;;27.80;99.90;;;;;;8384214;28;19929;-71
2022/08/18 17:20:38;;;;;;;;;;;27.60;99.90;;;;;;8383211;28;19927;-71
2022/08/18 17:24:40;;;;;;;;;;;27.60;99.90;;;;;;8403028;28;19924;-71
2022/08/18 17:28:49;;;;;;;;;;;27.60;99.90;;;;;;8387247;28;20425;-71
2022/08/18 17:32:55;;;;;;;;;;;27.40;99.90;;;;;;8383220;28;20150;-70
2022/08/18 17:36:57;;;;;;;;;;;27.30;99.90;;;;;;8389404;28;25113;-71
2022/08/18 17:40:59;;;;;;;;;;;27.30;99.90;;;;;;8386683;28;19932;-70
2022/08/18 17:45:03;;;;;;;;;;;27.30;99.90;;;;;;8386132;28;19924;-71
2022/08/18 17:49:10;;;;;;;;;;;27.30;99.90;;;;;;8389649;28;25074;-71
2022/08/18 17:53:12;;;;;;;;;;;27.10;99.90;;;;;;8388879;28;20018;-70
2022/08/18 17:57:19;;;;;;;;;;;27.00;99.90;;;;;;8389822;28;19920;-70
2022/08/18 18:01:21;;;;;;;;;;;26.80;99.90;;;;;;8388349;28;19920;-71
2022/08/18 18:05:28;;;;;;;;;;;26.60;99.90;;;;;;8388384;28;19932;-71
2022/08/18 18:09:30;;;;;;;;;;;26.40;99.90;;;;;;8388573;28;19925;-70
2022/08/18 18:13:32;;;;;;;;;;;26.20;99.90;;;;;;8391239;28;19924;-70
2022/08/18 18:17:36;;;;;;;;;;;26.10;99.90;;;;;;8410198;27;19928;-70
2022/08/18 18:21:38;;;;;;;;;;;26.00;99.90;;;;;;8398028;28;19926;-71
2022/08/18 18:25:59;;;;;;;;;;;25.90;99.90;;;;;;8394646;28;20011;-70
2022/08/18 18:30:01;;;;;;;;;;;25.80;99.90;;;;;;8395025;28;20292;-70
2022/08/18 18:34:14;;;;;;;4.10;1.77;;;25.70;99.90;;;;;;8393622;28;19925;-71
2022/08/18 18:38:30;;;;;;;3.00;1.80;;;25.60;99.90;;;;;;8394495;28;20087;-70
2022/08/18 18:42:33;;;;;;;3.15;1.70;;;25.40;99.90;;;;;;8382203;28;20091;-71
2022/08/18 18:46:49;;;;;;;;;;;25.30;99.90;;;;;;8391908;28;20044;-70
2022/08/18 18:51:05;;;;;;;;;;;25.20;99.90;;;;;;8377459;28;20015;-70
2022/08/18 18:55:15;;;;;;;;;;;25.10;99.90;;;;;;8396197;28;20005;-71
2022/08/18 18:59:32;;;;;;;;;;;25.00;99.90;;;;;;8396550;28;25129;-70
2022/08/18 19:03:35;;;;;;;;;;;24.90;99.90;;;;;;8391149;28;19981;-70
2022/08/18 19:07:47;;;;;;;;;;;24.80;99.90;;;;;;8391691;28;19931;-70
2022/08/18 19:12:09;;;;;;;;;;;24.80;99.90;;;;;;8397113;28;20398;-70
2022/08/18 19:16:17;;;;;;;;;;;24.70;99.90;;;;;;8392234;28;19923;-70
2022/08/18 19:20:38;;;;;;;3.55;1.90;;;24.60;99.90;;;;;;8382902;28;20081;-70
2022/08/18 19:24:49;;;;;;;3.30;1.80;;;24.50;99.90;;;;;;8388947;28;20407;-70
2022/08/18 19:28:58;;;;;;;3.72;1.80;;;24.40;99.90;;;;;;8377690;28;20044;-70
2022/08/18 19:33:20;;;;;;;;;;;24.40;99.90;;;;;;8390323;28;20118;-70
2022/08/18 19:37:28;;;;;;;;;;;24.30;99.90;;;;;;8394029;28;19920;-71
2022/08/18 19:41:38;;;;;;;;;;;24.20;99.90;;;;;;8393558;28;19927;-70
2022/08/18 19:45:45;;;;;;;;;;;24.10;99.90;;;;;;8390323;28;20088;-70
2022/08/18 19:49:54;;;;;;;;;;;24.00;99.90;;;;;;8385254;28;20374;-70
2022/08/18 19:54:13;;;;;;;;;;;23.90;99.90;;;;;;8389136;28;19946;-71
2022/08/18 19:58:30;;;;;;;;;;;23.80;99.90;;;;;;8394721;28;19931;-70
2022/08/18 20:02:33;;;;;;;;;;;23.80;99.90;;;;;;8389467;28;19927;-70
2022/08/18 20:06:54;;;;;;;;;;;23.70;99.90;;;;;;8388828;28;19924;-70
2022/08/18 20:10:56;;;;;;;;;;;23.70;99.90;;;;;;8384394;28;19924;-70
2022/08/18 20:15:00;;;;;;;;;;;23.60;99.90;;;;;;8382747;28;19932;-70
2022/08/18 20:19:21;;;;;;;;;;;23.50;99.90;;;;;;8390991;28;19936;-71
2022/08/18 20:23:34;;;;;;;;;;;23.50;99.90;;;;;;8391701;28;20378;-70
2022/08/18 20:27:35;;;;;;;;;;;23.40;99.90;;;;;;8390599;28;19932;-70
2022/08/18 20:31:51;;;;;;;;;;;23.40;99.90;;;;;;8393892;28;19920;-70
2022/08/18 20:36:10;;;;;;;;;;;23.30;99.90;;;;;;8383309;28;20291;-70
2022/08/18 20:40:35;;;;;;;;;;;23.30;99.90;;;;;;8385990;28;19920;-71
2022/08/18 20:44:47;;;;;;;;;;;23.20;99.90;;;;;;8372209;28;19924;-70
2022/08/18 20:49:04;;;;;;;;;;;23.20;99.90;;;;;;8386774;28;19942;-71
2022/08/18 20:53:12;;;;;;;;;;;23.10;99.90;;;;;;8386768;28;19924;-70
2022/08/18 20:57:14;;;;;;;;;;;23.00;99.90;;;;;;8392049;28;19924;-70
2022/08/18 21:01:16;;;;;;;;;;;23.00;99.90;;;;;;8395205;28;20282;-70
2022/08/18 21:05:22;;;;;;;;;;;22.90;99.90;;;;;;8431549;27;19923;-71
2022/08/18 21:09:29;;;;;;;;;;;22.80;99.90;;;;;;8409133;28;19955;-71
2022/08/18 21:13:38;;;;;;;;;;;22.70;99.90;;;;;;8408488;28;19920;-70
2022/08/18 21:17:40;;;;;;;;;;;22.60;99.90;;;;;;8405569;28;19935;-70
2022/08/18 21:22:08;;;;;;;;;;;22.60;99.90;;;;;;8424300;28;19920;-70
2022/08/18 21:26:14;;;;;;;;;;;22.50;99.90;;;;;;8407802;28;19919;-70
2022/08/18 21:30:20;;;;;;;;;;;22.40;99.90;;;;;;8440003;28;19943;-70
2022/08/18 21:34:31;;;;;;;;;;;22.40;99.90;;;;;;8422880;28;19978;-70
2022/08/18 21:38:32;;;;;;;;;;;22.30;99.90;;;;;;8413646;28;19920;-70
2022/08/18 21:42:39;;;;;;;;;;;22.20;99.90;;;;;;8420238;28;19928;-70
2022/08/18 21:46:41;;;;;;;;;;;22.20;99.90;;;;;;8411554;28;22267;-70
2022/08/18 21:50:51;;;;;;;;;;;22.10;99.90;;;;;;8424514;28;19923;-70
2022/08/18 21:54:56;;;;;;;;;;;22.10;99.90;;;;;;8443614;28;19931;-70
2022/08/18 21:59:08;;;;;;;;;;;22.00;99.90;;;;;;8419730;28;19921;-70
2022/08/18 22:03:19;;;;;;;;;;;22.00;99.90;;;;;;8425338;28;19943;-70
2022/08/18 22:07:21;;;;;;;;;;;21.90;99.90;;;;;;8417082;28;19920;-70
2022/08/18 22:16:20;;;;;;;;;;;21.80;99.90;;;;;;8418061;28;19928;-70
2022/08/18 22:20:39;;;;;;;;;;;21.70;99.90;;;;;;8415963;28;20390;-71
2022/08/18 22:24:41;;;;;;;;;;;21.70;99.90;;;;;;8430005;28;19938;-70
2022/08/18 22:28:52;;;;;;;;;;;21.60;99.90;;;;;;8437678;28;19931;-70
2022/08/18 22:32:53;;;;;;;;;;;21.60;99.90;;;;;;8427125;28;19926;-70
2022/08/18 22:36:58;;;;;;;;;;;21.50;99.90;;;;;;8420170;28;19921;-70
2022/08/18 22:41:00;;;;;;;;;;;21.40;99.90;;;;;;8428296;28;20251;-70
2022/08/18 22:45:04;;;;;;;;;;;21.40;99.90;;;;;;8423082;28;19928;-70
2022/08/18 22:49:06;;;;;;;;;;;21.30;99.90;;;;;;8428487;28;19931;-70
2022/08/18 22:53:07;;;;;;;;;;;21.30;99.90;;;;;;8431114;28;19927;-70
2022/08/18 22:57:09;;;;;;;;;;;21.20;99.90;;;;;;8410748;28;19919;-70
2022/08/18 23:01:11;;;;;;;;;;;21.20;99.90;;;;;;8425889;28;19980;-70
2022/08/18 23:05:12;;;;;;;;;;;21.20;99.90;;;;;;8423765;28;19951;-70
2022/08/18 23:09:14;;;;;;;;;;;21.10;99.90;;;;;;8427996;28;20298;-70
2022/08/18 23:13:16;;;;;;;;;;;21.00;99.90;;;;;;8438028;27;19920;-70
2022/08/18 23:17:20;;;;;;;;;;;21.00;99.90;;;;;;8422285;28;19920;-70
2022/08/18 23:21:21;;;;;;;;;;;20.90;99.90;;;;;;8448501;28;19932;-70
2022/08/18 23:25:35;;;;;;;;;;;20.90;99.90;;;;;;8433812;28;19924;-70
2022/08/18 23:29:38;;;;;;;;;;;20.90;99.90;;;;;;8433862;28;19927;-70
2022/08/18 23:33:40;;;;;;;;;;;20.80;99.90;;;;;;8420939;28;19951;-70
2022/08/18 23:37:42;;;;;;;;;;;20.80;99.90;;;;;;8436352;28;19927;-70
2022/08/18 23:41:43;;;;;;;;;;;20.70;99.90;;;;;;8427164;28;19919;-70
2022/08/18 23:45:48;;;;;;;;;;;20.70;99.90;;;;;;8420522;28;19974;-70
2022/08/18 23:49:52;;;;;;;;;;;20.60;99.90;;;;;;8429566;28;19931;-70
2022/08/18 23:54:03;;;;;;;;;;;20.60;99.90;;;;;;8415235;28;19920;-70
2022/08/18 23:58:07;;;;;;;;;;;20.60;99.90;;;;;;8432884;28;19931;-70
